createdAt,value
2018-09-18T00:01:32.043Z,16.39
2018-09-18T00:04:01.220Z,16.37
2018-09-18T00:06:30.422Z,16.32
2018-09-18T00:08:59.659Z,16.25
2018-09-18T00:11:28.885Z,16.29
2018-09-18T00:13:58.114Z,16.22
2018-09-18T00:16:27.322Z,16.19
2018-09-18T00:37:12.547Z,16.05
2018-09-18T00:39:41.723Z,16.15
2018-09-18T00:42:11.179Z,16.11
2018-09-18T00:44:40.435Z,16.10
2018-09-18T00:47:09.631Z,16.12
2018-09-18T00:49:38.832Z,16.02
2018-09-18T00:52:08.056Z,15.96
2018-09-18T00:54:37.262Z,16.01
2018-09-18T00:57:06.471Z,15.95
2018-09-18T00:59:35.639Z,15.91
2018-09-18T01:02:04.845Z,15.85
2018-09-18T01:04:34.065Z,15.77
2018-09-18T01:07:03.416Z,15.74
2018-09-18T01:09:32.650Z,15.69
2018-09-18T01:12:01.843Z,15.62
2018-09-18T01:14:31.081Z,15.57
2018-09-18T01:17:00.279Z,15.47
2018-09-18T01:19:29.502Z,15.47
2018-09-18T01:21:58.740Z,15.45
2018-09-18T01:24:28.003Z,15.45
2018-09-18T01:26:57.220Z,15.39
2018-09-18T01:29:26.483Z,15.49
2018-09-18T01:31:55.698Z,15.49
2018-09-18T01:34:24.911Z,15.39
2018-09-18T01:36:54.120Z,15.35
2018-09-18T01:39:23.323Z,15.29
2018-09-18T01:41:52.527Z,15.34
2018-09-18T01:44:21.735Z,15.30
2018-09-18T01:46:51.026Z,15.27
2018-09-18T01:49:20.271Z,15.17
2018-09-18T01:51:49.490Z,15.15
2018-09-18T01:54:18.698Z,15.13
2018-09-18T01:56:47.909Z,15.25
2018-09-18T01:59:17.412Z,15.25
2018-09-18T02:01:46.682Z,15.32
2018-09-18T02:04:16.455Z,15.19
2018-09-18T02:06:45.789Z,15.10
2018-09-18T02:09:15.607Z,15.15
2018-09-18T02:11:44.833Z,15.06
2018-09-18T02:14:14.354Z,15.11
2018-09-18T02:16:43.630Z,15.00
2018-09-18T02:19:13.378Z,15.06
2018-09-18T02:21:42.639Z,15.11
2018-09-18T02:24:11.819Z,15.06
2018-09-18T02:26:41.059Z,14.94
2018-09-18T02:29:10.923Z,14.87
2018-09-18T02:31:40.178Z,14.84
2018-09-18T02:34:09.462Z,14.82
2018-09-18T02:36:38.731Z,14.78
2018-09-18T02:39:09.923Z,14.86
2018-09-18T02:41:39.191Z,14.94
2018-09-18T02:44:08.415Z,14.89
2018-09-18T02:46:37.737Z,14.84
2018-09-18T02:49:07.883Z,14.81
2018-09-18T02:51:37.137Z,14.90
2018-09-18T02:54:06.330Z,14.81
2018-09-18T02:56:35.584Z,14.76
2018-09-18T02:59:04.924Z,14.63
2018-09-18T03:01:34.184Z,14.68
2018-09-18T03:04:03.392Z,14.63
2018-09-18T03:06:32.684Z,14.56
2018-09-18T03:09:01.860Z,14.50
2018-09-18T03:11:31.094Z,14.49
2018-09-18T03:14:00.274Z,14.46
2018-09-18T03:16:29.491Z,14.34
2018-09-18T03:18:58.715Z,14.40
2018-09-18T03:21:27.999Z,14.36
2018-09-18T03:23:57.185Z,14.26
2018-09-18T03:26:26.396Z,14.21
2018-09-18T03:28:55.560Z,14.22
2018-09-18T03:31:24.836Z,14.21
2018-09-18T03:33:54.003Z,14.18
2018-09-18T03:36:23.252Z,14.16
2018-09-18T03:38:52.500Z,14.15
2018-09-18T03:41:21.747Z,14.21
2018-09-18T03:43:50.927Z,14.19
2018-09-18T03:46:20.152Z,14.17
2018-09-18T03:48:49.356Z,14.12
2018-09-18T03:51:18.648Z,14.07
2018-09-18T03:53:47.824Z,14.12
2018-09-18T03:56:17.857Z,14.16
2018-09-18T03:58:47.030Z,14.08
2018-09-18T04:01:16.271Z,14.22
2018-09-18T04:03:45.465Z,14.15
2018-09-18T04:06:16.024Z,14.02
2018-09-18T04:08:45.249Z,14.00
2018-09-18T04:11:15.090Z,13.91
2018-09-18T04:13:44.323Z,13.89
2018-09-18T04:16:14.033Z,13.82
2018-09-18T04:18:43.206Z,13.86
2018-09-18T04:21:12.823Z,13.93
2018-09-18T04:23:42.025Z,13.89
2018-09-18T04:26:11.480Z,13.93
2018-09-18T04:28:40.668Z,13.97
2018-09-18T04:31:10.141Z,13.93
2018-09-18T04:33:39.322Z,13.81
2018-09-18T04:36:08.518Z,13.75
2018-09-18T04:38:37.708Z,13.73
2018-09-18T04:41:07.369Z,13.64
2018-09-18T04:43:36.531Z,13.61
2018-09-18T04:46:06.012Z,13.56
2018-09-18T04:48:35.197Z,13.53
2018-09-18T04:51:04.376Z,13.52
2018-09-18T04:53:33.587Z,13.57
2018-09-18T04:56:04.070Z,13.53
2018-09-18T04:58:33.463Z,13.60
2018-09-18T05:01:02.668Z,13.57
2018-09-18T05:03:32.905Z,13.58
2018-09-18T05:06:02.536Z,13.74
2018-09-18T05:08:31.724Z,13.72
2018-09-18T05:11:01.024Z,13.84
2018-09-18T05:13:30.211Z,13.76
2018-09-18T05:15:59.423Z,13.72
2018-09-18T05:18:28.622Z,13.94
2018-09-18T05:20:57.852Z,13.95
2018-09-18T05:23:27.023Z,13.92
2018-09-18T05:25:56.550Z,13.90
2018-09-18T05:28:26.130Z,14.01
2018-09-18T05:30:55.361Z,14.02
2018-09-18T05:33:24.550Z,14.11
2018-09-18T05:35:54.754Z,14.16
2018-09-18T05:38:23.950Z,14.12
2018-09-18T05:40:53.143Z,14.17
2018-09-18T05:43:22.307Z,14.21
2018-09-18T05:45:51.525Z,14.25
2018-09-18T05:48:20.741Z,14.33
2018-09-18T05:50:49.971Z,14.40
2018-09-18T05:53:20.173Z,14.50
2018-09-18T05:55:50.896Z,14.60
2018-09-18T05:58:20.166Z,14.61
2018-09-18T06:00:49.685Z,14.89
2018-09-18T06:03:19.115Z,15.27
2018-09-18T06:05:51.047Z,16.17
2018-09-18T06:08:23.846Z,17.89
2018-09-18T06:10:53.018Z,19.83
2018-09-18T06:13:22.201Z,21.24
2018-09-18T06:15:51.499Z,22.18
2018-09-18T06:18:20.685Z,23.33
2018-09-18T06:20:49.905Z,24.12
2018-09-18T06:23:19.111Z,24.58
2018-09-18T06:25:48.328Z,24.95
2018-09-18T06:28:17.552Z,25.56
2018-09-18T06:30:46.790Z,25.91
2018-09-18T06:33:16.445Z,25.50
2018-09-18T06:35:45.676Z,24.74
2018-09-18T06:38:14.852Z,23.10
2018-09-18T06:40:44.122Z,24.33
2018-09-18T06:43:13.291Z,25.34
2018-09-18T06:45:42.512Z,25.99
2018-09-18T06:48:11.743Z,25.98
2018-09-18T06:50:40.962Z,24.02
2018-09-18T06:53:10.395Z,25.32
2018-09-18T06:55:39.626Z,26.09
2018-09-18T06:58:09.166Z,26.38
2018-09-18T07:00:38.451Z,26.51
2018-09-18T07:03:07.926Z,26.88
2018-09-18T07:05:37.190Z,26.98
2018-09-18T07:08:06.351Z,27.47
2018-09-18T07:10:35.563Z,27.53
2018-09-18T07:13:04.799Z,27.26
2018-09-18T07:15:34.067Z,27.34
2018-09-18T07:18:03.361Z,27.58
2018-09-18T07:20:32.495Z,27.73
2018-09-18T07:23:01.693Z,27.65
2018-09-18T07:25:31.163Z,27.63
2018-09-18T07:28:00.356Z,27.72
2018-09-18T07:30:29.592Z,27.93
2018-09-18T07:32:58.807Z,27.80
2018-09-18T07:35:28.056Z,27.60
2018-09-18T07:37:57.237Z,27.57
2018-09-18T07:40:26.480Z,27.01
2018-09-18T07:42:55.634Z,27.58
2018-09-18T07:45:24.895Z,28.19
2018-09-18T07:47:54.096Z,28.19
2018-09-18T07:50:23.424Z,28.38
2018-09-18T07:52:52.615Z,28.60
2018-09-18T07:55:21.883Z,28.62
2018-09-18T07:57:51.095Z,28.57
2018-09-18T08:00:20.354Z,28.51
2018-09-18T08:02:49.584Z,28.34
2018-09-18T08:05:18.826Z,28.53
2018-09-18T08:07:48.043Z,28.74
2018-09-18T08:10:17.314Z,28.74
2018-09-18T08:12:46.536Z,28.66
2018-09-18T08:15:15.747Z,28.61
2018-09-18T08:17:44.989Z,28.27
2018-09-18T08:20:14.318Z,27.54
2018-09-18T08:22:43.525Z,27.53
2018-09-18T08:25:13.467Z,27.24
2018-09-18T08:27:42.629Z,27.41
2018-09-18T08:30:12.378Z,27.01
2018-09-18T08:32:41.752Z,27.11
2018-09-18T08:35:12.904Z,27.18
2018-09-18T08:37:42.083Z,27.70
2018-09-18T08:40:12.578Z,27.70
2018-09-18T08:42:41.808Z,27.92
2018-09-18T08:45:12.241Z,27.66
2018-09-18T08:47:41.475Z,27.54
2018-09-18T08:50:12.086Z,27.51
2018-09-18T08:52:41.255Z,27.93
2018-09-18T08:55:11.830Z,27.76
2018-09-18T08:57:41.103Z,27.37
2018-09-18T09:00:11.641Z,27.79
2018-09-18T09:02:40.843Z,27.22
2018-09-18T09:05:11.540Z,26.47
2018-09-18T09:07:40.951Z,25.83
2018-09-18T09:10:11.679Z,25.95
2018-09-18T09:12:40.857Z,26.03
2018-09-18T09:15:11.349Z,26.14
2018-09-18T09:17:40.899Z,25.91
2018-09-18T09:20:11.299Z,25.49
2018-09-18T09:22:40.602Z,25.29
2018-09-18T09:25:10.867Z,25.07
2018-09-18T09:27:40.557Z,24.73
2018-09-18T09:30:11.144Z,24.99
2018-09-18T09:32:40.341Z,25.03
2018-09-18T09:35:10.672Z,25.19
2018-09-18T09:37:39.865Z,25.09
2018-09-18T09:40:11.044Z,25.09
2018-09-18T09:42:40.261Z,25.10
2018-09-18T09:45:11.182Z,25.17
2018-09-18T09:47:40.334Z,25.23
2018-09-18T09:50:10.952Z,25.26
2018-09-18T09:52:40.139Z,25.21
2018-09-18T09:55:10.206Z,25.21
2018-09-18T09:57:39.427Z,25.07
2018-09-18T10:00:18.715Z,25.12
2018-09-18T10:02:49.742Z,25.27
2018-09-18T10:05:20.382Z,25.50
2018-09-18T10:07:50.489Z,25.55
2018-09-18T10:10:20.953Z,25.62
2018-09-18T10:12:50.172Z,25.60
2018-09-18T10:15:19.435Z,25.64
2018-09-18T10:17:48.731Z,25.69
2018-09-18T10:20:17.890Z,25.85
2018-09-18T10:22:47.372Z,25.99
2018-09-18T10:25:16.725Z,26.03
2018-09-18T10:27:45.860Z,26.08
2018-09-18T10:30:15.178Z,26.15
2018-09-18T10:32:44.507Z,26.05
2018-09-18T10:35:14.192Z,26.30
2018-09-18T10:37:43.362Z,26.21
2018-09-18T10:40:13.539Z,26.38
2018-09-18T10:42:42.745Z,26.44
2018-09-18T10:45:13.681Z,26.53
2018-09-18T10:47:42.848Z,26.61
2018-09-18T10:50:12.499Z,26.52
2018-09-18T10:52:41.688Z,26.55
2018-09-18T10:55:12.324Z,26.71
2018-09-18T10:57:41.649Z,26.72
2018-09-18T11:00:12.515Z,26.76
2018-09-18T11:02:41.843Z,26.78
2018-09-18T11:05:12.608Z,26.71
2018-09-18T11:07:41.872Z,26.76
2018-09-18T11:10:12.532Z,26.95
2018-09-18T11:12:41.758Z,27.10
2018-09-18T11:15:12.523Z,27.14
2018-09-18T11:17:41.712Z,27.22
2018-09-18T11:20:12.752Z,27.21
2018-09-18T11:22:41.924Z,27.36
2018-09-18T11:25:12.099Z,27.40
2018-09-18T11:27:41.205Z,27.48
2018-09-18T11:30:12.386Z,27.56
2018-09-18T11:32:41.567Z,27.47
2018-09-18T11:35:12.323Z,27.55
2018-09-18T11:37:41.499Z,27.49
2018-09-18T11:40:13.125Z,27.60
2018-09-18T11:42:42.329Z,27.76
2018-09-18T11:45:13.246Z,27.80
2018-09-18T11:47:42.475Z,27.99
2018-09-18T11:50:12.701Z,27.99
2018-09-18T11:52:41.960Z,27.90
2018-09-18T11:55:12.603Z,28.02
2018-09-18T11:57:41.820Z,28.09
2018-09-18T12:00:12.447Z,28.15
2018-09-18T12:02:41.697Z,28.18
2018-09-18T12:05:12.029Z,28.05
2018-09-18T12:07:41.140Z,28.27
2018-09-18T12:10:11.688Z,28.28
2018-09-18T12:12:40.862Z,28.37
2018-09-18T12:15:11.799Z,28.42
2018-09-18T12:17:40.971Z,28.51
2018-09-18T12:20:11.559Z,28.61
2018-09-18T12:22:40.809Z,28.70
2018-09-18T12:25:11.658Z,28.71
2018-09-18T12:27:40.855Z,28.70
2018-09-18T12:30:11.857Z,28.63
2018-09-18T12:32:41.078Z,28.70
2018-09-18T12:35:12.025Z,28.79
2018-09-18T12:37:41.201Z,28.86
2018-09-18T12:40:11.889Z,28.86
2018-09-18T12:42:41.467Z,28.92
2018-09-18T12:45:11.859Z,28.87
2018-09-18T12:47:41.075Z,28.89
2018-09-18T12:50:12.246Z,28.77
2018-09-18T12:52:41.199Z,28.77
2018-09-18T12:55:11.419Z,28.75
2018-09-18T12:57:40.728Z,28.80
2018-09-18T13:00:11.448Z,28.81
2018-09-18T13:02:40.574Z,28.80
2018-09-18T13:05:11.760Z,28.79
2018-09-18T13:07:40.984Z,28.84
2018-09-18T13:10:11.270Z,28.81
2018-09-18T13:12:40.465Z,28.71
2018-09-18T13:15:10.436Z,28.79
2018-09-18T13:17:39.704Z,28.89
2018-09-18T13:20:09.791Z,28.96
2018-09-18T13:22:39.058Z,29.06
2018-09-18T13:25:08.514Z,29.13
2018-09-18T13:27:37.724Z,29.12
2018-09-18T13:30:07.312Z,29.00
2018-09-18T13:32:36.551Z,29.02
2018-09-18T13:35:05.714Z,29.07
2018-09-18T13:37:34.923Z,29.06
2018-09-18T13:40:04.099Z,29.09
2018-09-18T13:42:33.314Z,29.21
2018-09-18T13:45:02.470Z,29.29
2018-09-18T13:47:31.724Z,29.33
2018-09-18T13:50:00.869Z,29.25
2018-09-18T13:52:30.107Z,29.16
2018-09-18T13:54:59.264Z,29.16
2018-09-18T13:57:28.536Z,29.13
2018-09-18T13:59:57.659Z,29.18
2018-09-18T14:02:27.077Z,29.12
2018-09-18T14:04:56.307Z,29.14
2018-09-18T14:07:25.462Z,29.15
2018-09-18T14:09:54.639Z,29.11
2018-09-18T14:12:23.880Z,29.11
2018-09-18T14:14:53.316Z,29.10
2018-09-18T14:17:22.498Z,29.18
2018-09-18T14:19:51.685Z,29.19
2018-09-18T14:22:20.892Z,29.12
2018-09-18T14:24:50.010Z,28.93
2018-09-18T14:27:19.219Z,28.81
2018-09-18T14:29:48.401Z,28.76
2018-09-18T14:32:17.613Z,28.78
2018-09-18T14:34:46.766Z,28.80
2018-09-18T14:37:15.911Z,28.64
2018-09-18T14:39:45.049Z,28.68
2018-09-18T14:42:14.224Z,28.61
2018-09-18T14:44:43.366Z,28.57
2018-09-18T14:47:12.579Z,28.55
2018-09-18T14:49:41.726Z,28.46
2018-09-18T14:52:10.959Z,28.36
2018-09-18T14:54:40.103Z,28.34
2018-09-18T14:57:09.636Z,28.31
2018-09-18T14:59:38.837Z,28.38
2018-09-18T15:02:08.525Z,28.48
2018-09-18T15:04:37.683Z,28.48
2018-09-18T15:07:07.279Z,28.67
2018-09-18T15:09:36.450Z,28.83
2018-09-18T15:12:05.779Z,28.88
2018-09-18T15:14:34.953Z,29.02
2018-09-18T15:17:04.138Z,29.08
2018-09-18T15:19:33.315Z,29.03
2018-09-18T15:22:02.585Z,29.16
2018-09-18T15:24:31.680Z,29.23
2018-09-18T15:27:00.883Z,29.18
2018-09-18T15:29:30.075Z,29.03
2018-09-18T15:31:59.304Z,29.10
2018-09-18T15:34:28.405Z,28.93
2018-09-18T15:36:57.655Z,28.96
2018-09-18T15:39:26.873Z,28.91
2018-09-18T15:41:56.051Z,28.86
2018-09-18T15:44:25.196Z,28.70
2018-09-18T15:46:54.410Z,28.51
2018-09-18T15:49:23.575Z,28.54
2018-09-18T15:51:52.774Z,28.62
2018-09-18T15:54:21.896Z,28.62
2018-09-18T15:56:51.184Z,28.57
2018-09-18T15:59:20.356Z,28.55
2018-09-18T16:01:49.591Z,28.52
2018-09-18T16:04:18.789Z,28.45
2018-09-18T16:06:48.052Z,28.45
2018-09-18T16:09:17.185Z,28.31
2018-09-18T16:11:46.372Z,28.20
2018-09-18T16:14:15.602Z,28.16
2018-09-18T16:16:46.133Z,28.11
2018-09-18T16:19:16.371Z,28.10
2018-09-18T16:21:47.670Z,28.05
2018-09-18T16:24:16.894Z,28.00
2018-09-18T16:26:46.080Z,27.92
2018-09-18T16:29:15.239Z,27.80
2018-09-18T16:31:44.771Z,27.73
2018-09-18T16:34:14.001Z,27.70
2018-09-18T16:36:44.156Z,27.69
2018-09-18T16:39:14.059Z,27.65
2018-09-18T16:41:43.253Z,27.47
2018-09-18T16:44:12.487Z,27.30
2018-09-18T16:46:41.749Z,27.15
2018-09-18T16:49:11.107Z,27.08
2018-09-18T16:51:40.328Z,26.98
2018-09-18T16:54:09.966Z,26.88
2018-09-18T16:56:39.153Z,26.86
2018-09-18T16:59:08.786Z,26.78
2018-09-18T17:01:38.405Z,26.69
2018-09-18T17:04:08.524Z,26.69
2018-09-18T17:06:37.850Z,26.60
2018-09-18T17:09:08.572Z,26.43
2018-09-18T17:11:38.033Z,26.39
2018-09-18T17:14:07.331Z,26.25
2018-09-18T17:16:36.613Z,26.18
2018-09-18T17:19:06.028Z,26.13
2018-09-18T17:21:35.261Z,26.07
2018-09-18T17:24:07.473Z,26.01
2018-09-18T17:26:36.635Z,26.01
2018-09-18T17:29:06.094Z,25.97
2018-09-18T17:31:35.338Z,25.95
2018-09-18T17:34:04.681Z,25.90
2018-09-18T17:36:33.862Z,25.90
2018-09-18T17:39:03.218Z,25.92
2018-09-18T17:41:32.468Z,25.94
2018-09-18T17:44:01.582Z,25.89
2018-09-18T17:46:30.866Z,25.87
2018-09-18T17:49:00.081Z,25.84
2018-09-18T17:51:29.263Z,25.72
2018-09-18T17:53:58.419Z,25.64
2018-09-18T17:56:27.916Z,25.51
2018-09-18T17:58:57.296Z,25.43
2018-09-18T18:01:26.653Z,25.30
2018-09-18T18:03:55.984Z,25.24
2018-09-18T18:06:25.398Z,25.21
2018-09-18T18:08:54.590Z,25.17
2018-09-18T18:11:24.096Z,25.11
2018-09-18T18:13:53.326Z,24.98
2018-09-18T18:16:22.524Z,24.86
2018-09-18T18:18:51.758Z,24.75
2018-09-18T18:21:21.012Z,24.66
2018-09-18T18:23:50.246Z,24.56
2018-09-18T18:26:19.469Z,24.52
2018-09-18T18:28:48.645Z,24.54
2018-09-18T18:31:18.001Z,24.55
2018-09-18T18:33:47.382Z,24.62
2018-09-18T18:36:16.783Z,24.69
2018-09-18T18:38:46.124Z,24.76
2018-09-18T18:41:15.873Z,24.68
2018-09-18T18:43:45.285Z,24.64
2018-09-18T18:46:15.326Z,24.72
2018-09-18T18:48:44.631Z,24.71
2018-09-18T18:51:14.805Z,24.75
2018-09-18T18:53:44.043Z,24.78
2018-09-18T18:56:15.156Z,24.79
2018-09-18T18:58:47.324Z,24.86
2018-09-18T19:01:16.535Z,24.75
2018-09-18T19:03:45.888Z,24.66
2018-09-18T19:06:16.260Z,24.64
2018-09-18T19:08:45.661Z,24.55
2018-09-18T19:11:15.484Z,24.50
2018-09-18T19:13:44.669Z,24.50
2018-09-18T19:16:14.531Z,24.43
2018-09-18T19:18:43.748Z,24.40
2018-09-18T19:21:13.440Z,24.34
2018-09-18T19:23:42.813Z,24.35
2018-09-18T19:26:12.137Z,24.23
2018-09-18T19:28:41.404Z,24.20
2018-09-18T19:31:10.615Z,24.17
2018-09-18T19:33:39.809Z,24.14
2018-09-18T19:36:09.038Z,24.04
2018-09-18T19:38:38.201Z,23.99
2018-09-18T19:41:08.549Z,23.93
2018-09-18T19:43:37.741Z,23.84
2018-09-18T19:46:07.231Z,23.80
2018-09-18T19:48:36.410Z,23.74
2018-09-18T19:51:06.391Z,23.68
2018-09-18T19:53:35.620Z,23.63
2018-09-18T19:56:04.878Z,23.56
2018-09-18T19:58:34.069Z,23.50
2018-09-18T20:01:03.324Z,23.45
2018-09-18T20:03:32.474Z,23.42
2018-09-18T20:06:01.703Z,23.34
2018-09-18T20:08:30.893Z,23.31
2018-09-18T20:11:00.055Z,23.28
2018-09-18T20:13:29.209Z,23.28
2018-09-18T20:15:58.439Z,23.25
2018-09-18T20:18:27.610Z,23.26
2018-09-18T20:20:56.996Z,23.21
2018-09-18T20:23:26.149Z,23.18
2018-09-18T20:25:55.327Z,23.15
2018-09-18T20:28:24.533Z,23.08
2018-09-18T20:30:53.831Z,23.05
2018-09-18T20:33:23.039Z,23.02
2018-09-18T20:35:52.304Z,22.94
2018-09-18T20:38:21.506Z,22.85
2018-09-18T20:40:50.740Z,22.77
2018-09-18T20:43:19.924Z,22.76
2018-09-18T20:45:49.158Z,22.68
2018-09-18T20:48:18.395Z,22.63
2018-09-18T20:50:47.648Z,22.57
2018-09-18T20:53:17.119Z,22.51
2018-09-18T20:55:46.331Z,22.47
2018-09-18T20:58:16.080Z,22.42
2018-09-18T21:00:45.270Z,22.38
2018-09-18T21:03:14.995Z,22.33
2018-09-18T21:05:44.239Z,22.29
2018-09-18T21:08:13.957Z,22.24
2018-09-18T21:10:43.198Z,22.21
2018-09-18T21:13:12.366Z,22.20
2018-09-18T21:15:41.609Z,22.14
2018-09-18T21:18:10.772Z,22.14
2018-09-18T21:20:40.023Z,22.11
2018-09-18T21:23:09.126Z,22.08
2018-09-18T21:26:18.252Z,22.10
2018-09-18T21:28:47.785Z,22.04
2018-09-18T21:31:17.498Z,22.00
2018-09-18T21:33:46.696Z,21.94
2018-09-18T21:36:16.050Z,21.93
2018-09-18T21:38:45.251Z,21.87
2018-09-18T21:41:15.039Z,21.82
2018-09-18T21:43:44.282Z,21.80
2018-09-18T21:46:14.083Z,21.82
2018-09-18T21:48:43.312Z,21.81
2018-09-18T21:51:12.850Z,21.79
2018-09-18T21:53:42.024Z,21.75
2018-09-18T21:56:11.449Z,21.71
2018-09-18T21:58:40.683Z,21.69
2018-09-18T22:01:12.498Z,21.65
2018-09-18T22:03:41.760Z,21.62
2018-09-18T22:06:11.465Z,21.63
2018-09-18T22:08:40.634Z,21.63
2018-09-18T22:11:09.912Z,21.63
2018-09-18T22:13:39.116Z,21.60
2018-09-18T22:16:08.328Z,21.61
2018-09-18T22:18:37.474Z,21.56
2018-09-18T22:21:06.792Z,21.60
2018-09-18T22:23:35.947Z,21.62
2018-09-18T22:26:05.179Z,21.63
2018-09-18T22:28:34.375Z,21.54
2018-09-18T22:31:03.637Z,21.43
2018-09-18T22:33:32.802Z,21.35
2018-09-18T22:36:02.051Z,21.40
2018-09-18T22:38:31.192Z,21.44
2018-09-18T22:41:00.380Z,21.44
2018-09-18T22:43:29.603Z,21.32
2018-09-18T22:45:58.890Z,21.22
2018-09-18T22:48:28.109Z,21.12
2018-09-18T22:50:57.313Z,21.06
2018-09-18T22:53:26.477Z,21.07
2018-09-18T22:55:55.700Z,21.13
2018-09-18T22:58:24.902Z,21.28
2018-09-18T23:00:54.302Z,21.20
2018-09-18T23:03:23.470Z,21.22
2018-09-18T23:05:52.700Z,21.25
2018-09-18T23:08:21.911Z,21.14
2018-09-18T23:10:51.127Z,21.21
2018-09-18T23:13:20.343Z,21.22
2018-09-18T23:15:49.857Z,21.07
2018-09-18T23:18:19.049Z,21.05
2018-09-18T23:20:48.219Z,20.96
2018-09-18T23:23:17.427Z,20.88
2018-09-18T23:25:46.630Z,20.77
2018-09-18T23:28:16.128Z,20.72
2018-09-18T23:30:45.283Z,20.64
2018-09-18T23:33:15.186Z,20.58
2018-09-18T23:35:44.389Z,20.53
2018-09-18T23:38:14.203Z,20.47
2018-09-18T23:40:43.429Z,20.42
2018-09-18T23:43:13.273Z,20.39
2018-09-18T23:45:42.512Z,20.40
2018-09-18T23:48:12.203Z,20.36
2018-09-18T23:50:41.390Z,20.33
2018-09-18T23:53:10.621Z,20.30
2018-09-18T23:55:39.849Z,20.36
2018-09-18T23:58:09.029Z,20.30
